Decoded Metar for KJNX (SMITHFIELD JOHNS in NC, USA) (IATA:JNX) | Meteo·Mobile Aviation Weather
aviador You're here:

KJNX Decoded Metar

SMITHFIELD JOHNS in NC, USA
Report Time2019-08-19 03:15:00
UTC Time2019-08-19 03:39:58
Flight Rules vfr VFR
WindCalm
Visibility9999 m
Phenomena:N/A
Clouds:Scattered 046 Hf
Scattered 050 Hf
CeilingNone
Temp25°C (ISA +10)
Dew Point25°C (100% RH)
QNH1017 hPa
Density Alt1,640 ft
Elevation164 ft
Report Wrong Elevation
Raw Report
METAR KJNX 190315Z AUTO 00000KT 10SM SCT046 SCT050 25/25 A3002 RMK
AO2=

Extra information for KJNX:More info

Metar Taf Metar & Taf Last 4 Metars F.Rules Stats Wind Profile Meteogram Temp Stats Airport Information Weather charts Add Link Nearby VenuesMetar ALERT Operation Metar Decoded Social comments

AIRNAV info for KJNX